sensor_id;sensor_type;location;lat;lon;timestamp;P1;durP1;ratioP1;P2;durP2;ratioP2
73264;SDS011;61493;51.008;14.088;2023-09-08T00:00:25;8.50;;;4.70;;
73264;SDS011;61493;51.008;14.088;2023-09-08T00:02:50;8.30;;;4.70;;
73264;SDS011;61493;51.008;14.088;2023-09-08T00:05:16;9.10;;;4.90;;
73264;SDS011;61493;51.008;14.088;2023-09-08T00:07:41;6.40;;;4.20;;
73264;SDS011;61493;51.008;14.088;2023-09-08T00:10:08;7.70;;;4.60;;
73264;SDS011;61493;51.008;14.088;2023-09-08T00:12:33;8.43;;;4.13;;
73264;SDS011;61493;51.008;14.088;2023-09-08T00:14:58;7.25;;;4.57;;
73264;SDS011;61493;51.008;14.088;2023-09-08T00:17:23;7.47;;;4.27;;
73264;SDS011;61493;51.008;14.088;2023-09-08T00:19:48;5.67;;;3.87;;
73264;SDS011;61493;51.008;14.088;2023-09-08T00:22:14;8.88;;;5.07;;
73264;SDS011;61493;51.008;14.088;2023-09-08T00:24:39;9.37;;;4.97;;
73264;SDS011;61493;51.008;14.088;2023-09-08T00:27:04;7.57;;;4.30;;
73264;SDS011;61493;51.008;14.088;2023-09-08T00:29:29;7.25;;;4.78;;
73264;SDS011;61493;51.008;14.088;2023-09-08T00:31:54;7.32;;;4.72;;
73264;SDS011;61493;51.008;14.088;2023-09-08T00:34:20;8.03;;;4.27;;
73264;SDS011;61493;51.008;14.088;2023-09-08T00:36:45;7.97;;;4.87;;
73264;SDS011;61493;51.008;14.088;2023-09-08T00:39:10;7.63;;;4.57;;
73264;SDS011;61493;51.008;14.088;2023-09-08T00:41:35;6.03;;;4.45;;
73264;SDS011;61493;51.008;14.088;2023-09-08T00:44:00;6.60;;;4.07;;
73264;SDS011;61493;51.008;14.088;2023-09-08T00:46:25;6.60;;;4.43;;
73264;SDS011;61493;51.008;14.088;2023-09-08T00:48:52;7.15;;;4.72;;
73264;SDS011;61493;51.008;14.088;2023-09-08T00:53:54;8.52;;;4.82;;
73264;SDS011;61493;51.008;14.088;2023-09-08T00:56:19;9.23;;;4.70;;
73264;SDS011;61493;51.008;14.088;2023-09-08T00:58:45;7.13;;;4.45;;
73264;SDS011;61493;51.008;14.088;2023-09-08T01:01:11;6.40;;;4.72;;
73264;SDS011;61493;51.008;14.088;2023-09-08T01:03:36;11.80;;;6.67;;
73264;SDS011;61493;51.008;14.088;2023-09-08T01:06:01;7.85;;;5.22;;
73264;SDS011;61493;51.008;14.088;2023-09-08T01:08:26;11.25;;;5.72;;
73264;SDS011;61493;51.008;14.088;2023-09-08T01:10:52;8.75;;;6.25;;
73264;SDS011;61493;51.008;14.088;2023-09-08T01:13:17;7.90;;;6.63;;
73264;SDS011;61493;51.008;14.088;2023-09-08T01:15:43;8.67;;;7.63;;
73264;SDS011;61493;51.008;14.088;2023-09-08T01:18:08;8.53;;;7.03;;
73264;SDS011;61493;51.008;14.088;2023-09-08T01:23:18;9.35;;;7.45;;
73264;SDS011;61493;51.008;14.088;2023-09-08T01:25:52;7.45;;;5.38;;
73264;SDS011;61493;51.008;14.088;2023-09-08T01:28:19;9.05;;;5.00;;
73264;SDS011;61493;51.008;14.088;2023-09-08T01:30:45;8.77;;;4.63;;
73264;SDS011;61493;51.008;14.088;2023-09-08T01:33:11;6.53;;;4.43;;
73264;SDS011;61493;51.008;14.088;2023-09-08T01:35:36;7.68;;;5.07;;
73264;SDS011;61493;51.008;14.088;2023-09-08T01:38:01;7.88;;;5.00;;
73264;SDS011;61493;51.008;14.088;2023-09-08T01:40:26;6.47;;;4.93;;
73264;SDS011;61493;51.008;14.088;2023-09-08T01:42:52;7.60;;;4.22;;
73264;SDS011;61493;51.008;14.088;2023-09-08T01:45:17;8.48;;;4.85;;
73264;SDS011;61493;51.008;14.088;2023-09-08T01:47:42;7.35;;;4.55;;
73264;SDS011;61493;51.008;14.088;2023-09-08T01:50:07;7.13;;;4.83;;
73264;SDS011;61493;51.008;14.088;2023-09-08T01:52:33;7.15;;;4.30;;
73264;SDS011;61493;51.008;14.088;2023-09-08T01:54:58;6.50;;;4.45;;
73264;SDS011;61493;51.008;14.088;2023-09-08T01:57:23;6.57;;;4.45;;
73264;SDS011;61493;51.008;14.088;2023-09-08T01:59:48;7.55;;;4.70;;
73264;SDS011;61493;51.008;14.088;2023-09-08T02:02:14;8.93;;;4.85;;
73264;SDS011;61493;51.008;14.088;2023-09-08T02:04:39;7.40;;;4.80;;
73264;SDS011;61493;51.008;14.088;2023-09-08T02:07:04;7.55;;;4.55;;
73264;SDS011;61493;51.008;14.088;2023-09-08T02:09:30;9.65;;;4.57;;
73264;SDS011;61493;51.008;14.088;2023-09-08T02:11:56;7.15;;;4.70;;
73264;SDS011;61493;51.008;14.088;2023-09-08T02:14:21;6.28;;;4.35;;
73264;SDS011;61493;51.008;14.088;2023-09-08T02:16:46;8.35;;;4.60;;
73264;SDS011;61493;51.008;14.088;2023-09-08T02:19:11;9.13;;;4.55;;
73264;SDS011;61493;51.008;14.088;2023-09-08T02:21:37;6.97;;;4.32;;
73264;SDS011;61493;51.008;14.088;2023-09-08T02:24:02;7.05;;;4.38;;
73264;SDS011;61493;51.008;14.088;2023-09-08T02:26:27;6.43;;;4.25;;
73264;SDS011;61493;51.008;14.088;2023-09-08T02:28:52;7.85;;;5.00;;
73264;SDS011;61493;51.008;14.088;2023-09-08T02:31:17;9.97;;;4.93;;
73264;SDS011;61493;51.008;14.088;2023-09-08T02:33:43;8.97;;;4.93;;
73264;SDS011;61493;51.008;14.088;2023-09-08T02:36:08;7.60;;;4.88;;
73264;SDS011;61493;51.008;14.088;2023-09-08T02:38:33;6.70;;;4.40;;
73264;SDS011;61493;51.008;14.088;2023-09-08T02:40:58;9.57;;;4.57;;
73264;SDS011;61493;51.008;14.088;2023-09-08T02:43:23;7.80;;;5.17;;
73264;SDS011;61493;51.008;14.088;2023-09-08T02:45:49;10.65;;;4.30;;
73264;SDS011;61493;51.008;14.088;2023-09-08T02:48:14;7.32;;;4.43;;
73264;SDS011;61493;51.008;14.088;2023-09-08T02:50:39;7.22;;;4.68;;
73264;SDS011;61493;51.008;14.088;2023-09-08T02:53:04;8.20;;;4.67;;
73264;SDS011;61493;51.008;14.088;2023-09-08T02:55:30;8.40;;;4.68;;
73264;SDS011;61493;51.008;14.088;2023-09-08T02:57:55;8.00;;;5.22;;
73264;SDS011;61493;51.008;14.088;2023-09-08T03:00:21;7.47;;;4.32;;
73264;SDS011;61493;51.008;14.088;2023-09-08T03:02:46;7.38;;;4.85;;
73264;SDS011;61493;51.008;14.088;2023-09-08T03:05:11;9.77;;;5.00;;
73264;SDS011;61493;51.008;14.088;2023-09-08T03:07:36;8.00;;;4.55;;
73264;SDS011;61493;51.008;14.088;2023-09-08T03:10:02;7.53;;;4.70;;
73264;SDS011;61493;51.008;14.088;2023-09-08T03:12:28;8.38;;;5.07;;
73264;SDS011;61493;51.008;14.088;2023-09-08T03:14:54;8.48;;;4.72;;
73264;SDS011;61493;51.008;14.088;2023-09-08T03:17:19;7.03;;;4.72;;
73264;SDS011;61493;51.008;14.088;2023-09-08T03:19:45;7.75;;;5.40;;
73264;SDS011;61493;51.008;14.088;2023-09-08T03:22:10;7.88;;;4.75;;
73264;SDS011;61493;51.008;14.088;2023-09-08T03:24:35;6.82;;;4.75;;
73264;SDS011;61493;51.008;14.088;2023-09-08T03:27:00;8.93;;;4.72;;
73264;SDS011;61493;51.008;14.088;2023-09-08T03:29:26;7.87;;;4.77;;
73264;SDS011;61493;51.008;14.088;2023-09-08T03:31:51;8.63;;;5.30;;
73264;SDS011;61493;51.008;14.088;2023-09-08T03:34:20;8.35;;;5.25;;
73264;SDS011;61493;51.008;14.088;2023-09-08T03:36:48;7.03;;;5.13;;
73264;SDS011;61493;51.008;14.088;2023-09-08T03:39:13;7.00;;;4.75;;
73264;SDS011;61493;51.008;14.088;2023-09-08T03:41:38;8.60;;;4.72;;
73264;SDS011;61493;51.008;14.088;2023-09-08T03:44:04;8.20;;;4.90;;
73264;SDS011;61493;51.008;14.088;2023-09-08T03:46:29;9.57;;;5.53;;
73264;SDS011;61493;51.008;14.088;2023-09-08T03:48:54;12.20;;;5.70;;
73264;SDS011;61493;51.008;14.088;2023-09-08T03:51:23;9.48;;;5.22;;
73264;SDS011;61493;51.008;14.088;2023-09-08T03:53:49;8.27;;;4.88;;
73264;SDS011;61493;51.008;14.088;2023-09-08T03:56:14;9.68;;;5.32;;
73264;SDS011;61493;51.008;14.088;2023-09-08T03:58:39;7.10;;;4.93;;
73264;SDS011;61493;51.008;14.088;2023-09-08T04:01:04;9.33;;;5.20;;
73264;SDS011;61493;51.008;14.088;2023-09-08T04:03:29;7.78;;;4.85;;
73264;SDS011;61493;51.008;14.088;2023-09-08T04:05:55;6.37;;;4.83;;
73264;SDS011;61493;51.008;14.088;2023-09-08T04:08:20;9.70;;;5.83;;
73264;SDS011;61493;51.008;14.088;2023-09-08T04:10:45;10.67;;;5.83;;
73264;SDS011;61493;51.008;14.088;2023-09-08T04:13:10;9.05;;;5.22;;
73264;SDS011;61493;51.008;14.088;2023-09-08T04:15:35;10.20;;;5.63;;
73264;SDS011;61493;51.008;14.088;2023-09-08T04:18:00;8.48;;;5.25;;
73264;SDS011;61493;51.008;14.088;2023-09-08T04:20:27;7.68;;;5.20;;
73264;SDS011;61493;51.008;14.088;2023-09-08T04:22:52;11.75;;;5.55;;
73264;SDS011;61493;51.008;14.088;2023-09-08T04:25:17;7.05;;;4.60;;
73264;SDS011;61493;51.008;14.088;2023-09-08T04:27:42;9.25;;;5.20;;
73264;SDS011;61493;51.008;14.088;2023-09-08T04:30:09;7.18;;;4.75;;
73264;SDS011;61493;51.008;14.088;2023-09-08T04:32:35;10.55;;;4.75;;
73264;SDS011;61493;51.008;14.088;2023-09-08T04:35:02;6.82;;;5.05;;
73264;SDS011;61493;51.008;14.088;2023-09-08T04:37:27;11.15;;;5.70;;
73264;SDS011;61493;51.008;14.088;2023-09-08T04:39:53;7.88;;;5.85;;
73264;SDS011;61493;51.008;14.088;2023-09-08T04:42:18;7.07;;;5.10;;
73264;SDS011;61493;51.008;14.088;2023-09-08T04:44:43;8.63;;;6.15;;
73264;SDS011;61493;51.008;14.088;2023-09-08T04:47:08;10.88;;;5.60;;
73264;SDS011;61493;51.008;14.088;2023-09-08T04:49:33;9.05;;;4.80;;
73264;SDS011;61493;51.008;14.088;2023-09-08T04:51:59;8.77;;;5.07;;
73264;SDS011;61493;51.008;14.088;2023-09-08T04:54:24;8.95;;;5.03;;
73264;SDS011;61493;51.008;14.088;2023-09-08T04:56:52;7.45;;;4.80;;
73264;SDS011;61493;51.008;14.088;2023-09-08T04:59:17;8.80;;;4.82;;
73264;SDS011;61493;51.008;14.088;2023-09-08T05:01:42;7.90;;;5.00;;
73264;SDS011;61493;51.008;14.088;2023-09-08T05:04:08;7.57;;;4.88;;
73264;SDS011;61493;51.008;14.088;2023-09-08T05:06:33;8.82;;;4.95;;
73264;SDS011;61493;51.008;14.088;2023-09-08T05:08:59;6.78;;;4.88;;
73264;SDS011;61493;51.008;14.088;2023-09-08T05:11:24;8.20;;;4.93;;
73264;SDS011;61493;51.008;14.088;2023-09-08T05:13:51;8.50;;;5.20;;
73264;SDS011;61493;51.008;14.088;2023-09-08T05:16:16;10.05;;;5.00;;
73264;SDS011;61493;51.008;14.088;2023-09-08T05:18:43;8.80;;;4.97;;
73264;SDS011;61493;51.008;14.088;2023-09-08T05:21:09;8.70;;;5.83;;
73264;SDS011;61493;51.008;14.088;2023-09-08T05:23:34;6.47;;;5.03;;
73264;SDS011;61493;51.008;14.088;2023-09-08T05:25:59;9.77;;;4.83;;
73264;SDS011;61493;51.008;14.088;2023-09-08T05:28:24;8.18;;;5.13;;
73264;SDS011;61493;51.008;14.088;2023-09-08T05:30:53;10.30;;;5.23;;
73264;SDS011;61493;51.008;14.088;2023-09-08T05:33:18;7.13;;;4.90;;
73264;SDS011;61493;51.008;14.088;2023-09-08T05:35:44;8.93;;;4.90;;
73264;SDS011;61493;51.008;14.088;2023-09-08T05:38:09;7.97;;;5.20;;
73264;SDS011;61493;51.008;14.088;2023-09-08T05:40:35;7.37;;;4.50;;
73264;SDS011;61493;51.008;14.088;2023-09-08T05:43:00;12.15;;;4.75;;
73264;SDS011;61493;51.008;14.088;2023-09-08T05:45:25;7.07;;;4.38;;
73264;SDS011;61493;51.008;14.088;2023-09-08T05:47:50;7.50;;;4.80;;
73264;SDS011;61493;51.008;14.088;2023-09-08T05:50:16;8.60;;;4.68;;
73264;SDS011;61493;51.008;14.088;2023-09-08T05:52:41;10.30;;;4.70;;
73264;SDS011;61493;51.008;14.088;2023-09-08T05:55:06;6.30;;;4.10;;
73264;SDS011;61493;51.008;14.088;2023-09-08T05:57:31;5.65;;;4.43;;
73264;SDS011;61493;51.008;14.088;2023-09-08T05:59:56;7.27;;;4.40;;
73264;SDS011;61493;51.008;14.088;2023-09-08T06:02:22;6.97;;;4.53;;
73264;SDS011;61493;51.008;14.088;2023-09-08T06:04:47;6.85;;;3.95;;
73264;SDS011;61493;51.008;14.088;2023-09-08T06:07:12;6.77;;;5.30;;
73264;SDS011;61493;51.008;14.088;2023-09-08T06:09:37;7.50;;;4.40;;
73264;SDS011;61493;51.008;14.088;2023-09-08T06:12:03;7.37;;;4.53;;
73264;SDS011;61493;51.008;14.088;2023-09-08T06:14:28;6.05;;;4.70;;
73264;SDS011;61493;51.008;14.088;2023-09-08T06:16:53;6.50;;;4.53;;
73264;SDS011;61493;51.008;14.088;2023-09-08T06:19:18;7.67;;;3.97;;
73264;SDS011;61493;51.008;14.088;2023-09-08T06:21:43;6.50;;;3.87;;
73264;SDS011;61493;51.008;14.088;2023-09-08T06:24:08;7.33;;;3.83;;
73264;SDS011;61493;51.008;14.088;2023-09-08T06:26:34;6.70;;;4.53;;
73264;SDS011;61493;51.008;14.088;2023-09-08T06:28:59;7.13;;;4.13;;
73264;SDS011;61493;51.008;14.088;2023-09-08T06:31:24;6.90;;;4.53;;
73264;SDS011;61493;51.008;14.088;2023-09-08T06:33:49;7.53;;;4.63;;
73264;SDS011;61493;51.008;14.088;2023-09-08T06:36:17;6.90;;;4.45;;
73264;SDS011;61493;51.008;14.088;2023-09-08T06:38:42;7.05;;;4.10;;
73264;SDS011;61493;51.008;14.088;2023-09-08T06:41:10;8.67;;;4.50;;
73264;SDS011;61493;51.008;14.088;2023-09-08T06:43:36;8.02;;;4.00;;
73264;SDS011;61493;51.008;14.088;2023-09-08T06:46:01;6.85;;;4.13;;
73264;SDS011;61493;51.008;14.088;2023-09-08T06:48:26;6.03;;;4.43;;
73264;SDS011;61493;51.008;14.088;2023-09-08T06:50:55;7.07;;;4.67;;
73264;SDS011;61493;51.008;14.088;2023-09-08T06:53:21;6.47;;;4.05;;
73264;SDS011;61493;51.008;14.088;2023-09-08T06:55:46;6.97;;;4.30;;
73264;SDS011;61493;51.008;14.088;2023-09-08T06:58:11;6.13;;;3.80;;
73264;SDS011;61493;51.008;14.088;2023-09-08T07:00:39;9.07;;;4.40;;
73264;SDS011;61493;51.008;14.088;2023-09-08T07:03:04;6.80;;;4.43;;
73264;SDS011;61493;51.008;14.088;2023-09-08T07:05:30;6.00;;;4.30;;
73264;SDS011;61493;51.008;14.088;2023-09-08T07:07:55;5.77;;;3.87;;
73264;SDS011;61493;51.008;14.088;2023-09-08T07:10:21;5.90;;;3.90;;
73264;SDS011;61493;51.008;14.088;2023-09-08T07:12:46;5.87;;;3.70;;
73264;SDS011;61493;51.008;14.088;2023-09-08T07:15:12;5.68;;;3.67;;
73264;SDS011;61493;51.008;14.088;2023-09-08T07:17:37;8.25;;;4.38;;
73264;SDS011;61493;51.008;14.088;2023-09-08T07:20:02;7.53;;;4.23;;
73264;SDS011;61493;51.008;14.088;2023-09-08T07:22:28;6.00;;;3.85;;
73264;SDS011;61493;51.008;14.088;2023-09-08T07:24:53;6.20;;;4.60;;
73264;SDS011;61493;51.008;14.088;2023-09-08T07:27:18;6.83;;;4.07;;
73264;SDS011;61493;51.008;14.088;2023-09-08T07:29:45;8.88;;;5.22;;
73264;SDS011;61493;51.008;14.088;2023-09-08T07:32:12;6.82;;;4.40;;
73264;SDS011;61493;51.008;14.088;2023-09-08T07:34:38;7.43;;;4.73;;
73264;SDS011;61493;51.008;14.088;2023-09-08T07:37:03;7.50;;;4.80;;
73264;SDS011;61493;51.008;14.088;2023-09-08T07:39:28;8.13;;;5.40;;
73264;SDS011;61493;51.008;14.088;2023-09-08T07:41:54;6.20;;;4.00;;
73264;SDS011;61493;51.008;14.088;2023-09-08T07:44:21;7.82;;;4.05;;
73264;SDS011;61493;51.008;14.088;2023-09-08T07:46:46;8.07;;;5.47;;
73264;SDS011;61493;51.008;14.088;2023-09-08T07:49:13;6.15;;;4.63;;
73264;SDS011;61493;51.008;14.088;2023-09-08T07:51:40;6.70;;;3.97;;
73264;SDS011;61493;51.008;14.088;2023-09-08T07:54:05;4.83;;;3.53;;
73264;SDS011;61493;51.008;14.088;2023-09-08T07:56:30;5.40;;;3.95;;
73264;SDS011;61493;51.008;14.088;2023-09-08T07:58:55;5.53;;;4.17;;
73264;SDS011;61493;51.008;14.088;2023-09-08T08:01:20;5.43;;;4.27;;
73264;SDS011;61493;51.008;14.088;2023-09-08T08:03:46;6.10;;;3.87;;
73264;SDS011;61493;51.008;14.088;2023-09-08T08:06:11;5.67;;;3.57;;
73264;SDS011;61493;51.008;14.088;2023-09-08T08:08:36;6.07;;;4.00;;
73264;SDS011;61493;51.008;14.088;2023-09-08T08:11:08;6.32;;;4.13;;
73264;SDS011;61493;51.008;14.088;2023-09-08T08:13:33;5.80;;;4.00;;
73264;SDS011;61493;51.008;14.088;2023-09-08T08:15:58;7.30;;;4.30;;
73264;SDS011;61493;51.008;14.088;2023-09-08T08:18:23;7.17;;;3.93;;
73264;SDS011;61493;51.008;14.088;2023-09-08T08:20:48;5.77;;;4.07;;
73264;SDS011;61493;51.008;14.088;2023-09-08T08:23:14;8.20;;;4.40;;
73264;SDS011;61493;51.008;14.088;2023-09-08T08:25:39;6.53;;;4.20;;
73264;SDS011;61493;51.008;14.088;2023-09-08T08:28:04;5.63;;;4.00;;
73264;SDS011;61493;51.008;14.088;2023-09-08T08:30:29;7.97;;;4.03;;
73264;SDS011;61493;51.008;14.088;2023-09-08T08:32:55;5.88;;;4.07;;
73264;SDS011;61493;51.008;14.088;2023-09-08T08:35:20;5.20;;;3.60;;
73264;SDS011;61493;51.008;14.088;2023-09-08T08:37:45;6.97;;;4.65;;
73264;SDS011;61493;51.008;14.088;2023-09-08T08:40:11;7.03;;;3.60;;
73264;SDS011;61493;51.008;14.088;2023-09-08T08:42:37;5.50;;;3.90;;
73264;SDS011;61493;51.008;14.088;2023-09-08T08:45:02;5.90;;;4.00;;
73264;SDS011;61493;51.008;14.088;2023-09-08T08:47:28;5.10;;;3.72;;
73264;SDS011;61493;51.008;14.088;2023-09-08T08:49:55;4.20;;;3.40;;
73264;SDS011;61493;51.008;14.088;2023-09-08T08:52:21;5.15;;;3.20;;
73264;SDS011;61493;51.008;14.088;2023-09-08T08:54:46;6.53;;;3.78;;
73264;SDS011;61493;51.008;14.088;2023-09-08T08:57:12;5.50;;;3.95;;
73264;SDS011;61493;51.008;14.088;2023-09-08T08:59:38;7.32;;;3.50;;
73264;SDS011;61493;51.008;14.088;2023-09-08T09:02:04;5.25;;;3.67;;
73264;SDS011;61493;51.008;14.088;2023-09-08T09:04:30;7.28;;;3.90;;
73264;SDS011;61493;51.008;14.088;2023-09-08T09:06:56;6.32;;;3.47;;
73264;SDS011;61493;51.008;14.088;2023-09-08T09:09:22;4.90;;;3.30;;
73264;SDS011;61493;51.008;14.088;2023-09-08T09:11:48;5.82;;;3.30;;
73264;SDS011;61493;51.008;14.088;2023-09-08T09:14:14;4.65;;;3.58;;
73264;SDS011;61493;51.008;14.088;2023-09-08T09:16:42;6.37;;;3.43;;
73264;SDS011;61493;51.008;14.088;2023-09-08T09:19:08;6.05;;;3.95;;
73264;SDS011;61493;51.008;14.088;2023-09-08T09:21:43;6.23;;;3.50;;
73264;SDS011;61493;51.008;14.088;2023-09-08T09:24:15;6.13;;;3.30;;
73264;SDS011;61493;51.008;14.088;2023-09-08T09:26:41;6.63;;;4.00;;
73264;SDS011;61493;51.008;14.088;2023-09-08T09:29:12;7.63;;;3.80;;
73264;SDS011;61493;51.008;14.088;2023-09-08T09:31:42;6.35;;;4.00;;
73264;SDS011;61493;51.008;14.088;2023-09-08T09:34:14;4.75;;;3.38;;
73264;SDS011;61493;51.008;14.088;2023-09-08T09:36:40;4.83;;;3.23;;
73264;SDS011;61493;51.008;14.088;2023-09-08T09:39:07;5.93;;;3.85;;
73264;SDS011;61493;51.008;14.088;2023-09-08T09:41:32;4.83;;;3.07;;
73264;SDS011;61493;51.008;14.088;2023-09-08T09:43:58;5.72;;;3.70;;
73264;SDS011;61493;51.008;14.088;2023-09-08T09:46:23;5.00;;;3.00;;
73264;SDS011;61493;51.008;14.088;2023-09-08T09:48:55;4.37;;;3.20;;
73264;SDS011;61493;51.008;14.088;2023-09-08T09:51:21;4.97;;;3.30;;
73264;SDS011;61493;51.008;14.088;2023-09-08T09:53:47;5.38;;;3.50;;
73264;SDS011;61493;51.008;14.088;2023-09-08T09:56:14;7.53;;;3.45;;
73264;SDS011;61493;51.008;14.088;2023-09-08T09:58:40;6.10;;;3.67;;
73264;SDS011;61493;51.008;14.088;2023-09-08T10:01:05;6.57;;;3.85;;
73264;SDS011;61493;51.008;14.088;2023-09-08T10:03:31;6.28;;;3.40;;
73264;SDS011;61493;51.008;14.088;2023-09-08T10:05:57;4.93;;;3.33;;
73264;SDS011;61493;51.008;14.088;2023-09-08T10:08:23;5.72;;;3.45;;
73264;SDS011;61493;51.008;14.088;2023-09-08T10:10:48;6.33;;;3.20;;
73264;SDS011;61493;51.008;14.088;2023-09-08T10:13:16;5.63;;;3.65;;
73264;SDS011;61493;51.008;14.088;2023-09-08T10:15:43;5.15;;;3.45;;
73264;SDS011;61493;51.008;14.088;2023-09-08T10:18:09;6.45;;;3.40;;
73264;SDS011;61493;51.008;14.088;2023-09-08T10:20:35;5.13;;;3.70;;
73264;SDS011;61493;51.008;14.088;2023-09-08T10:23:12;5.40;;;3.38;;
73264;SDS011;61493;51.008;14.088;2023-09-08T10:25:39;7.43;;;3.40;;
73264;SDS011;61493;51.008;14.088;2023-09-08T10:28:06;7.68;;;3.70;;
73264;SDS011;61493;51.008;14.088;2023-09-08T10:30:32;8.93;;;3.55;;
73264;SDS011;61493;51.008;14.088;2023-09-08T10:32:58;4.82;;;3.63;;
73264;SDS011;61493;51.008;14.088;2023-09-08T10:35:24;8.07;;;3.60;;
73264;SDS011;61493;51.008;14.088;2023-09-08T10:37:50;5.53;;;3.58;;
73264;SDS011;61493;51.008;14.088;2023-09-08T10:40:24;5.37;;;3.63;;
73264;SDS011;61493;51.008;14.088;2023-09-08T10:43:07;4.05;;;3.20;;
73264;SDS011;61493;51.008;14.088;2023-09-08T10:45:32;5.55;;;3.63;;
73264;SDS011;61493;51.008;14.088;2023-09-08T10:47:58;5.20;;;3.30;;
73264;SDS011;61493;51.008;14.088;2023-09-08T10:50:27;6.40;;;3.50;;
73264;SDS011;61493;51.008;14.088;2023-09-08T10:53:04;8.13;;;3.75;;
73264;SDS011;61493;51.008;14.088;2023-09-08T10:55:48;8.15;;;3.63;;
73264;SDS011;61493;51.008;14.088;2023-09-08T10:58:32;6.57;;;3.55;;
73264;SDS011;61493;51.008;14.088;2023-09-08T11:01:01;5.22;;;3.47;;
73264;SDS011;61493;51.008;14.088;2023-09-08T11:03:27;4.78;;;3.83;;
73264;SDS011;61493;51.008;14.088;2023-09-08T11:05:53;6.65;;;3.83;;
73264;SDS011;61493;51.008;14.088;2023-09-08T11:08:19;6.78;;;4.20;;
73264;SDS011;61493;51.008;14.088;2023-09-08T11:10:44;7.53;;;3.90;;
73264;SDS011;61493;51.008;14.088;2023-09-08T11:13:10;3.90;;;3.00;;
73264;SDS011;61493;51.008;14.088;2023-09-08T11:15:35;6.40;;;4.00;;
73264;SDS011;61493;51.008;14.088;2023-09-08T11:18:04;5.03;;;3.20;;
73264;SDS011;61493;51.008;14.088;2023-09-08T11:20:29;7.30;;;3.80;;
73264;SDS011;61493;51.008;14.088;2023-09-08T11:22:54;4.33;;;3.13;;
73264;SDS011;61493;51.008;14.088;2023-09-08T11:25:20;4.87;;;2.93;;
73264;SDS011;61493;51.008;14.088;2023-09-08T11:27:45;5.13;;;3.00;;
73264;SDS011;61493;51.008;14.088;2023-09-08T11:30:11;5.80;;;3.40;;
73264;SDS011;61493;51.008;14.088;2023-09-08T11:32:37;7.05;;;3.28;;
73264;SDS011;61493;51.008;14.088;2023-09-08T11:35:09;6.07;;;3.80;;
73264;SDS011;61493;51.008;14.088;2023-09-08T11:37:39;3.85;;;2.72;;
73264;SDS011;61493;51.008;14.088;2023-09-08T11:40:04;5.15;;;3.67;;
73264;SDS011;61493;51.008;14.088;2023-09-08T11:42:39;4.85;;;3.90;;
73264;SDS011;61493;51.008;14.088;2023-09-08T11:45:10;4.50;;;3.40;;
73264;SDS011;61493;51.008;14.088;2023-09-08T11:47:35;5.57;;;3.35;;
73264;SDS011;61493;51.008;14.088;2023-09-08T11:50:01;5.63;;;3.50;;
73264;SDS011;61493;51.008;14.088;2023-09-08T11:52:27;6.95;;;3.45;;
73264;SDS011;61493;51.008;14.088;2023-09-08T11:54:52;4.50;;;3.70;;
73264;SDS011;61493;51.008;14.088;2023-09-08T11:57:18;4.45;;;3.30;;
73264;SDS011;61493;51.008;14.088;2023-09-08T11:59:43;5.80;;;3.23;;
73264;SDS011;61493;51.008;14.088;2023-09-08T12:02:11;4.40;;;3.20;;
73264;SDS011;61493;51.008;14.088;2023-09-08T12:04:37;5.95;;;3.38;;
73264;SDS011;61493;51.008;14.088;2023-09-08T12:07:02;6.33;;;3.10;;
73264;SDS011;61493;51.008;14.088;2023-09-08T12:09:27;5.63;;;3.63;;
73264;SDS011;61493;51.008;14.088;2023-09-08T12:11:52;3.87;;;3.10;;
73264;SDS011;61493;51.008;14.088;2023-09-08T12:14:18;7.13;;;3.50;;
73264;SDS011;61493;51.008;14.088;2023-09-08T12:16:43;6.50;;;3.47;;
73264;SDS011;61493;51.008;14.088;2023-09-08T12:19:10;5.38;;;3.88;;
73264;SDS011;61493;51.008;14.088;2023-09-08T12:21:56;5.18;;;3.90;;
73264;SDS011;61493;51.008;14.088;2023-09-08T12:27:05;4.63;;;3.30;;
73264;SDS011;61493;51.008;14.088;2023-09-08T12:29:31;5.47;;;3.03;;
73264;SDS011;61493;51.008;14.088;2023-09-08T12:31:56;5.95;;;3.55;;
73264;SDS011;61493;51.008;14.088;2023-09-08T12:34:21;5.93;;;3.40;;
73264;SDS011;61493;51.008;14.088;2023-09-08T12:36:46;6.50;;;3.80;;
73264;SDS011;61493;51.008;14.088;2023-09-08T12:39:11;6.50;;;3.53;;
73264;SDS011;61493;51.008;14.088;2023-09-08T12:41:37;5.87;;;3.60;;
73264;SDS011;61493;51.008;14.088;2023-09-08T12:44:02;4.90;;;3.57;;
73264;SDS011;61493;51.008;14.088;2023-09-08T12:46:27;4.60;;;3.53;;
73264;SDS011;61493;51.008;14.088;2023-09-08T12:48:55;5.13;;;3.13;;
73264;SDS011;61493;51.008;14.088;2023-09-08T12:51:20;5.63;;;3.20;;
73264;SDS011;61493;51.008;14.088;2023-09-08T12:53:45;4.73;;;3.00;;
73264;SDS011;61493;51.008;14.088;2023-09-08T12:56:10;4.57;;;3.03;;
73264;SDS011;61493;51.008;14.088;2023-09-08T12:58:36;5.53;;;3.43;;
73264;SDS011;61493;51.008;14.088;2023-09-08T13:01:01;4.63;;;2.90;;
73264;SDS011;61493;51.008;14.088;2023-09-08T13:03:26;5.83;;;3.17;;
73264;SDS011;61493;51.008;14.088;2023-09-08T13:05:53;6.68;;;3.33;;
73264;SDS011;61493;51.008;14.088;2023-09-08T13:08:18;5.53;;;2.90;;
73264;SDS011;61493;51.008;14.088;2023-09-08T13:10:44;3.67;;;2.80;;
73264;SDS011;61493;51.008;14.088;2023-09-08T13:13:09;4.90;;;3.20;;
73264;SDS011;61493;51.008;14.088;2023-09-08T13:15:34;5.30;;;3.20;;
73264;SDS011;61493;51.008;14.088;2023-09-08T13:17:59;6.45;;;3.33;;
73264;SDS011;61493;51.008;14.088;2023-09-08T13:20:24;6.47;;;3.70;;
73264;SDS011;61493;51.008;14.088;2023-09-08T13:22:50;5.73;;;3.33;;
73264;SDS011;61493;51.008;14.088;2023-09-08T13:25:15;6.30;;;3.10;;
73264;SDS011;61493;51.008;14.088;2023-09-08T13:27:40;4.37;;;3.00;;
73264;SDS011;61493;51.008;14.088;2023-09-08T13:30:09;4.53;;;2.88;;
73264;SDS011;61493;51.008;14.088;2023-09-08T13:32:34;4.53;;;2.97;;
73264;SDS011;61493;51.008;14.088;2023-09-08T13:35:00;6.37;;;2.90;;
73264;SDS011;61493;51.008;14.088;2023-09-08T13:37:25;5.03;;;3.00;;
73264;SDS011;61493;51.008;14.088;2023-09-08T13:39:51;7.70;;;3.47;;
73264;SDS011;61493;51.008;14.088;2023-09-08T13:42:16;4.57;;;3.30;;
73264;SDS011;61493;51.008;14.088;2023-09-08T13:44:41;6.03;;;2.88;;
73264;SDS011;61493;51.008;14.088;2023-09-08T13:47:06;4.43;;;2.92;;
73264;SDS011;61493;51.008;14.088;2023-09-08T13:49:32;5.10;;;3.57;;
73264;SDS011;61493;51.008;14.088;2023-09-08T13:51:57;5.00;;;3.00;;
73264;SDS011;61493;51.008;14.088;2023-09-08T13:54:22;4.30;;;3.15;;
73264;SDS011;61493;51.008;14.088;2023-09-08T13:56:56;5.68;;;3.33;;
73264;SDS011;61493;51.008;14.088;2023-09-08T13:59:22;5.72;;;3.33;;
73264;SDS011;61493;51.008;14.088;2023-09-08T14:01:47;4.33;;;2.57;;
73264;SDS011;61493;51.008;14.088;2023-09-08T14:04:14;4.70;;;3.40;;
73264;SDS011;61493;51.008;14.088;2023-09-08T14:06:39;5.77;;;3.20;;
73264;SDS011;61493;51.008;14.088;2023-09-08T14:09:04;4.97;;;2.90;;
73264;SDS011;61493;51.008;14.088;2023-09-08T14:11:29;6.70;;;3.55;;
73264;SDS011;61493;51.008;14.088;2023-09-08T14:13:55;5.20;;;3.42;;
73264;SDS011;61493;51.008;14.088;2023-09-08T14:16:20;5.13;;;3.57;;
73264;SDS011;61493;51.008;14.088;2023-09-08T14:18:45;6.50;;;3.23;;
73264;SDS011;61493;51.008;14.088;2023-09-08T14:21:11;4.32;;;3.10;;
73264;SDS011;61493;51.008;14.088;2023-09-08T14:23:36;4.77;;;3.40;;
73264;SDS011;61493;51.008;14.088;2023-09-08T14:26:03;4.05;;;2.85;;
73264;SDS011;61493;51.008;14.088;2023-09-08T14:28:28;4.97;;;3.03;;
73264;SDS011;61493;51.008;14.088;2023-09-08T14:30:53;4.28;;;2.80;;
73264;SDS011;61493;51.008;14.088;2023-09-08T14:33:19;4.93;;;3.33;;